Decoded Metar for K1S5 ( in ) (IATA:) | Meteo·Mobile Aviation Weather
aviador You're here:

K1S5 Decoded Metar

in
Report Time2018-10-17 03:15:00
UTC Time2018-10-17 03:35:06
Flight Rules vfr VFR
WindCalm
Visibility9999 m
Phenomena:N/A
Clouds:N/A
Expected CloudBase > 1,200 ft AGL from Temp-Dew spread
CeilingNone
Temp07°C
Dew Point04°C (81% RH)
AAT5.7°C
QNH1027 hPa
Raw Report
K1S5 170315Z AUTO 00000KT 10SM CLR 07/04 A3033 RMK AO2
T00740040=

Extra information for K1S5:More info

Social comments